Latest Observation

65 Stations

10 Minute Data
as of 5/2/26 11:20 AM PDT
Station Date Time Temp (°F) RH (%) Dew Pt (°F) Wind Spd (mph) Wind Dir (°) Wind Gust (mph) Wind Gst Dir (°) Latest Rain (In) Soil Moist (%) Soil Temp (°F) Daily Rain (In) Daily Min Temp (°F) Daily Max Temp (°F) Daily Max Wind (mph)
Hobart Mills 5/2/26 1110 58.9   0.7 48   19 39.5   11.5 1.6   0.4 E | 101 3.7   1.4 E | 79 0.00 - 32.0   0.0 0.00 35.0   5.7 59.1   1.2 3.7   3.6
Prosser Dam 5/2/26 1120 60.0   0.4 41   10 36.0   7.5 2.9   3.1 WSW | 237 9.8   1.4 SE | 142 0.00 21.2   0.7 48.9   1.7 0.00 33.6   6.0 60.8   0.7 12.2   1.0
West Incline Village 5/2/26 1110 54.2   1.0 42   9 31.4   7.1 2.2   2.4 SE | 142 5.5   7.5 S | 188 0.00 30.8   0.1 44.3   0.9 0.00 43.8   2.6 54.9   1.1 9.8   5.1
Incline Village (Fairview Blvd) 5/2/26 1120 56.0   1.6 41   12 32.5   9.5 1.9   0.5 S | 181 5.7   1.0 SSE | 161 0.00 24.2   0.1 51.9   1.3 0.00 45.5   1.5 56.5   1.6 6.2   5.6
Incline Village (Diamond Peak) 5/2/26 1120 53.7   3.5 40   9 30.2   9.5 1.4   3.0 SE | 144 6.2   8.6 SE | 131 0.00 8.5   0.1 45.0   1.9 0.00 46.2   2.5 54.0   1.0 7.0   7.8
Incline Village (Mill Creek) 5/2/26 1120 58.2   2.6 39   10 33.0   9.8 2.0   4.0 WNW | 285 4.6   11.8 W | 262 0.00 9.9   0.0 45.6   0.9 0.00 44.0   1.5 58.5   1.6 6.5   9.9
Incline Village (Lakeshore Blvd) 5/2/26 1120 58.7   0.8 39   9 33.8   7.5 0.4   1.6 WNW | 296 2.0   3.7 NW | 314 0.00 31.5   0.4 50.9   2.5 0.00 39.6   3.7 59.4   1.0 4.3   7.2
Glenbrook 5/2/26 1120 54.4   2.5 55   27 38.2   14.4 0.5   6.2 SE | 135 3.4   9.4 SW | 232 0.00 44.3   0.0 44.7   0.5 0.00 40.3   3.0 56.5   1.2 4.5   12.3
Zephyr Cove 5/2/26 1120 58.0   1.4 38   13 32.6   9.4 0.0   1.5 N | 0 0.0   4.6 WSW | 256 0.00 - 34.3   0.0 0.00 43.1   13.7 58.2   1.4 2.2   5.1
Kingsbury Grade 5/2/26 1120 57.8   3.6 39   12 32.9   12.0 0.4   5.5 NE | 55 2.4   12.8 E | 90 0.00 5.6   0.2 53.2   2.0 0.00 41.8   4.5 58.0   2.7 5.7   9.4
South Daggett Pass (Ridge) 5/2/26 1120 53.6   2.2 40   9 30.0   7.9 4.4   0.7 ESE | 111 9.3   2.9 ESE | 103 0.00 6.6   0.1 48.4   1.2 0.00 44.9   1.8 54.1   2.4 17.1   1.9
Palomino Valley 5/2/26 1120 70.0   3.5 22   3 29.4   5.9 5.2   3.0 SW | 233 10.6   1.1 WSW | 238 0.00 6.7   0.0 62.5   2.8 0.00 41.8   7.8 70.7   3.9 12.0   1.5
East Cold Springs 5/2/26 1120 63.9   2.5 30   6 32.1   7.7 5.1   3.8 SE | 124 8.3   6.2 E | 94 0.00 1.5   0.0 55.8   1.7 0.00 48.1   2.5 64.3   1.8 11.2   7.8
Peavine 5/2/26 1120 61.4   3.2 32   5 31.1   6.9 3.3   0.4 SSE | 148 14.0   3.0 SSE | 148 0.00 - 53.4   0.0 0.00 49.7   5.4 62.2   3.1 16.0   1.0
West Verdi Peak 5/2/26 1120 59.2   1.2 37   10 32.9   8.4 3.0   2.5 SE | 138 11.9   0.2 E | 100 0.00 16.8   0.8 51.2   1.7 0.00 48.9   8.6 59.9   0.9 11.9   2.2
West Verdi 5/2/26 1120 65.3   2.6 28   5 31.7   6.7 9.4   1.1 SE | 124 16.9   1.1 SE | 124 0.00 7.9   0.1 60.9   2.0 0.00 46.7   7.5 65.4   1.8 17.8   2.0
South Verdi 5/2/26 1120 62.4   2.2 33   6 32.9   7.3 6.1   5.3 WSW | 248 11.7   9.8 WSW | 248 0.00 16.8   0.4 58.8   2.1 0.00 45.8   2.8 62.7   2.0 20.4   1.1
Northwest Reno 5/2/26 1110 64.6   3.2 30   6 32.7   8.2 7.2   2.5 SSE | 156 10.6   0.7 SSE | 153 0.00 24.2   0.2 62.5   2.1 0.00 51.6   5.2 65.3   2.8 16.5   3.4
North Lawton 5/2/26 1120 65.8   3.7 29   5 32.6   7.8 5.4   1.9 ENE | 58 11.0   0.5 ESE | 102 0.00 - 39.1   0.0 0.00 50.1   8.7 66.2   3.5 13.8   1.4
West Reno (Mogul) 5/2/26 1110 64.6   3.0 31   6 33.2   8.3 4.4   3.6 ENE | 59 10.2   7.2 NE | 50 0.00 39.0   0.2 61.3   0.8 0.00 48.8   5.8 65.1   2.9 10.6   6.8
Caughlin (Hunter Lake Trail) 9/16/25 0800 59.7   3.5 41   11 35.9   2.7 0.0   0.0 N | 0 0.0   0.0 ENE | 66 0.00 15.7   0.0 69.8   0.5 0.00 55.7   3.2 67.7   9.1 9.4   0.9
ArrowCreek 5/2/26 1120 65.3   1.9 33   10 35.5   10.3 5.1   0.8 ESE | 121 13.2   2.7 S | 169 0.00 - 32.0   0.0 0.00 48.9   4.6 66.1   2.1 13.2   0.7
Tracy 5/2/26 1120 70.0   4.0 23   3 30.1   7.0 3.5   3.0 NNE | 17 7.7   6.0 NW | 325 0.00 7.9   0.1 63.2   1.1 0.00 48.0   4.7 70.5   3.6 7.7   7.6
Virginia Highlands 5/2/26 1120 62.5   4.8 32   7 31.9   10.4 6.6   0.0 SE | 145 14.0   2.4 SE | 141 0.00 7.2   0.0 57.2   1.1 0.00 52.2   5.4 63.4   3.5 15.5   0.9
Virginia City 5/2/26 1120 59.6   3.0 34   8 31.0   8.9 8.4   5.8 SSE | 168 15.5   7.0 S | 180 0.00 8.5   0.0 54.5   1.9 0.00 51.0   3.5 60.6   3.5 19.5   6.5
Six Mile Canyon 9/9/25 0630 60.2   9.6 37   6 33.7   4.8 4.1   2.5 W | 277 6.1   2.9 WNW | 286 0.00 12.5   0.0 75.5   0.7 0.00 57.9   7.6 64.4   1.9 7.0   3.9
Mt Rose Highway 4/30/26 0510 40.8   4.7 47   13 22.3   1.3 2.3   0.2 WSW | 243 4.8   2.1 WSW | 246 0.00 24.1   0.3 43.0   0.8 0.00 40.5   4.7 43.0   5.3 7.7   0.4
Pleasant Valley 5/2/26 1120 66.2   2.2 28   4 32.2   6.1 8.6   4.0 S | 181 13.0   1.4 S | 189 0.00 2.8   0.0 63.0   1.5 0.00 46.0   4.7 66.8   1.8 13.0   1.4
New Washoe City 5/2/26 1120 64.4   1.9 29   7 31.5   8.8 8.3   4.7 S | 181 14.8   3.7 SSE | 161 0.00 4.6   0.0 59.3   1.3 0.00 46.1   5.3 64.7   1.3 15.4   4.4
Franktown Creek 5/2/26 1120 64.8   2.1 36   12 37.4   11.7 4.0   0.1 S | 183 7.7   2.5 SSW | 192 0.00 11.2   0.0 56.7   1.3 0.00 45.2   6.6 65.4   1.7 9.8   0.4
Musgrove Creek 5/2/26 1120 62.0   1.4 37   10 35.3   9.4 1.8   0.5 ESE | 114 6.6   0.1 ESE | 112 0.00 39.1   0.2 52.5   0.6 0.00 49.7   3.0 62.4   1.1 9.7   0.8
East Carson 11/23/24 0110 28.6   28.4 - - 4.7   11.0 SW | 220 14.7   10.1 SW | 219 0.02 - 50.9   0.1 0.02 -25.9   79.1 42.9   14.6 16.0   10.7
Kings Canyon 5/2/26 1120 63.7   2.8 34   8 34.5   9.1 3.7   0.5 ESE | 120 7.5   4.0 E | 96 0.00 15.5   0.5 57.9   1.9 0.00 45.8   5.5 64.0   2.3 8.1   3.4
Carson City (Voltaire Canyon) 5/2/26 1120 64.0   1.8 32   8 33.8   8.9 7.8   2.9 SSE | 168 12.8   2.5 SSW | 200 0.00 2.8   0.0 62.5   1.2 0.00 50.9   3.5 64.6   1.6 14.2   1.4
Jacks Valley 5/2/26 1120 63.2   1.0 33   9 33.9   9.0 3.5   0.1 SSW | 213 7.1   5.0 SSW | 193 0.00 9.9   0.2 63.7   2.1 0.00 47.0   3.4 63.5   0.2 8.4   5.6
Genoa 5/2/26 1120 64.7   0.5 37   10 37.7   8.5 0.2   1.2 N | 4 1.7   2.1 N | 8 0.00 5.8   0.3 63.9   0.9 0.00 47.6   5.1 65.8   0.8 5.5   0.9
South Genoa (Walleys Hot Springs) 5/2/26 1120 64.4   0.4 38   13 38.4   10.9 0.9   2.9 SE | 146 4.0   3.0 SSE | 162 0.00 13.7   0.1 64.0   1.2 0.00 42.9   5.9 65.0   0.3 7.6   0.4
SW Gardnerville (HWY 88) 5/2/26 1120 60.0   1.8 51   22 41.9   12.6 1.8   1.8 W | 279 4.0   3.2 W | 267 0.00 3.4   0.0 58.2   1.3 0.00 42.1   8.3 60.4   1.7 10.8   2.9
Sheridan 5/2/26 1120 60.8   1.1 46   14 39.6   8.6 1.9   1.4 N | 350 3.6   6.2 NNW | 339 0.00 2.4   0.1 59.9   1.3 0.00 45.8   6.2 61.0   1.8 6.7   3.1
Ruhenstroth 5/2/26 1120 63.4   0.6 41   15 39.6   11.5 3.7   0.7 WNW | 297 6.3   4.5 NW | 325 0.00 13.1   0.2 58.8   2.2 0.00 45.0   5.5 64.3   0.9 8.2   2.6
Double Spring 5/2/26 1120 62.0   2.8 30   7 30.3   9.0 5.8   4.9 SSE | 160 13.8   4.7 SSE | 156 0.00 28.6   0.0 57.5   1.5 0.00 39.6   9.0 62.4   2.1 13.9   9.8
North Topaz Lake 5/2/26 1120 64.1   3.1 28   6 30.1   8.7 3.9   3.4 ENE | 71 8.3   8.4 E | 81 0.00 9.2   0.3 62.9   4.6 0.00 51.6   3.7 64.5   2.6 8.3   8.4
Wild Oat Mountain 5/2/26 1120 61.4   2.5 31   7 30.7   8.7 3.0   3.8 ESE | 102 7.8   5.8 ENE | 74 0.00 16.7   0.1 59.4   1.6 0.00 51.9   5.8 61.7   1.4 8.1   7.2
Smith Valley 5/2/26 1120 68.8   5.2 25   2 31.7   6.2 4.5   0.3 S | 172 10.3   1.0 S | 170 0.00 6.0   0.0 61.9   1.7 0.00 45.6   2.8 69.4   5.2 11.3   0.7
Pine Grove Mountain 5/2/26 1120 55.8   6.5 32   3 26.3   8.1 3.9   1.0 W | 271 8.9   3.1 WNW | 290 0.00 14.5   0.0 50.3   2.0 0.00 46.0   4.5 56.9   6.2 23.7   4.8
Paradise Hill 5/2/26 1120 67.9   4.8 18   3 23.4   1.0 2.9   3.3 SSE | 162 8.2   5.0 ESE | 116 0.00 8.1   0.0 56.3   1.0 0.00 38.9   0.3 69.3   5.6 11.4   9.1
Winnemucca 5/2/26 1120 69.6   6.5 17   2 23.0   2.2 5.6   4.0 SSW | 210 11.6   6.3 SW | 215 0.00 5.8   0.0 55.8   1.8 0.00 41.1   2.6 70.7   6.7 12.4   6.0
NE Elko 5/2/26 1120 64.5   4.4 19   0 20.9   3.2 6.4   0.2 SE | 146 14.3   0.6 ESE | 121 0.00 12.4   0.1 53.5   0.8 0.00 28.6   5.3 65.1   4.2 14.3   0.9
North Elko 5/2/26 1120 63.9   6.4 18   1 19.2   7.2 6.8   1.7 S | 182 17.0   1.1 S | 171 0.00 28.4   0.1 52.7   1.1 0.00 42.5   0.8 64.8   5.0 17.0   1.7
South Elko 5/2/26 1120 85.8   7.4 33   1 52.8   5.3 8.6   4.0 S | 175 16.6   5.2 SSE | 168 0.00 18.9   0.0 52.2   1.9 0.00 46.3   2.4 114.3   9.4 20.1   3.9
Lamoille 1/28/26 1720 33.2   0.5 65   17 22.8   6.3 5.8   1.5 SSE | 166 7.7   1.9 SE | 139 0.00 12.2   0.0 33.4   0.1 0.02 23.5   2.0 36.5   5.9 25.6   17.4
Reid Gardner Sub 5/2/26 1120 82.2   2.6 11   2 22.7   1.8 2.8   1.3 E | 86 7.3   1.7 ENE | 69 0.00 24.6   0.1 70.1   0.5 0.00 52.7   12.1 82.8   2.7 10.8   4.2
Corn Creek 5/2/26 1120 75.9   1.9 13   5 20.8   6.2 11.6   1.9 ESE | 108 19.8   3.2 E | 100 0.00 4.0   0.0 71.2   0.2 0.00 57.0   5.7 76.7   2.0 24.6   5.5
Lucky Strike 5/2/26 1120 64.1   3.1 12   9 11.1   10.1 11.4   0.7 ESE | 103 19.1   0.2 ESE | 113 0.00 4.3   0.1 64.2   1.3 0.00 54.4   0.8 65.1   2.4 19.2   7.3
Lower Angel Peak 5/2/26 1120 59.2   3.1 17   11 14.2   8.9 5.8   1.0 N | 5 14.4   1.1 N | 3 0.00 10.6   0.2 52.2   0.7 0.00 42.0   0.1 60.2   3.5 18.9   1.6
Angel Peak 5/2/26 1120 47.6   0.1 22   14 10.6   10.9 10.8   6.2 ESE | 122 20.5   8.6 SE | 144 0.00 3.5   0.0 48.2   1.0 0.00 40.1   0.6 49.0   0.6 22.7   10.4
Upper Kyle Canyon 5/2/26 1120 53.7   4.1 21   14 15.0   8.4 9.0   2.2 SE | 132 18.6   4.5 ESE | 106 0.00 13.8   0.1 50.4   0.3 0.00 37.6   0.5 54.3   3.1 18.6   4.5
Mt Charleston 5/2/26 1120 53.6   2.8 21   13 14.7   8.7 3.5   1.1 ENE | 76 15.6   8.6 E | 92 0.00 18.4   0.1 46.9   0.0 0.00 39.7   0.1 54.0   1.9 16.3   3.8
Mid Kyle Canyon 5/2/26 1120 59.6   2.7 17   11 14.8   9.1 7.4   4.6 E | 96 14.3   6.6 SE | 125 0.00 7.0   0.1 54.5   0.3 0.00 43.0   0.4 60.2   1.9 21.4   0.5
Blue Diamond 5/2/26 1120 73.1   2.2 14   5 20.3   6.0 7.9   0.2 SE | 134 16.0   2.5 ESE | 114 0.00 3.5   0.0 67.1   0.1 0.00 45.4   0.0 74.3   2.0 16.0   0.5
Artesian Sub 5/2/26 1120 81.9   1.3 12   2 23.6   2.3 1.3   3.6 NNE | 15 7.1   6.0 NNE | 30 0.00 13.5   0.1 73.2   0.6 0.00 63.0   1.3 83.6   2.1 13.9   0.9
North Henderson 5/2/26 1110 81.4   1.8 12   2 23.2   2.3 5.1   4.7 ENE | 76 10.7   6.3 NE | 47 0.00 8.9   0.2 78.1   0.7 0.00 65.1   4.1 82.1   1.5 12.0   6.7
Sandy Valley 5/2/26 1120 78.4   1.5 13   5 23.4   6.8 14.2   1.8 ESE | 106 22.2   3.0 ESE | 115 0.00 4.5   0.0 75.6   2.4 0.00 65.2   4.5 79.4   1.7 35.0   13.0
Searchlight 5/2/26 1120 75.0   2.5 12   6 19.1   8.0 4.3   8.8 SE | 125 11.9   9.3 ESE | 112 0.00 4.6   0.0 70.0   0.0 0.00 59.3   1.4 75.6   2.4 21.2   8.2
Laughlin 5/2/26 1110 89.8   2.8 11   3 28.1   2.9 10.4   5.0 NE | 38 14.5   7.6 NE | 34 0.00 4.1   0.0 81.7   0.6 0.00 72.2   3.6 90.3   2.2 20.9   10.8
Max     89.8 55 52.8 14.2 - 22.2 - 0.00 44.3 81.7 0.00 72.2 114.3 35.0
Avg     64.3 29 29.5 4.9 - 10.4 - 0.00 13.0 56.6 - - - -
Min     47.6 11 10.6 0.0 - 0.0 - 0.00 1.5 32.0 0.00 28.6 49.0 2.2